Time;durP1;ratioP1;P1;durP2;ratioP2;P2;SDS_P1;SDS_P2;PMS_P1;PMS_P2;Temp;Humidity;BMP_temperature;BMP_pressure;BME280_temperature;BME280_humidity;BME280_pressure;Samples;Min_cycle;Max_cycle;Signal;HPM_P1;HPM_P2
2021/08/04 00:01:53;;;;;;;6.07;4.28;;;23.60;68.80;;;;;;5009718;28;20726;-77
2021/08/04 00:04:19;;;;;;;4.80;3.83;;;23.50;67.60;;;;;;5007176;28;20200;-77
2021/08/04 00:06:44;;;;;;;4.50;4.00;;;23.50;67.90;;;;;;5005236;28;20190;-78
2021/08/04 00:09:10;;;;;;;5.07;4.63;;;23.40;67.80;;;;;;5010674;28;20718;-77
2021/08/04 00:11:36;;;;;;;7.80;3.80;;;23.40;68.10;;;;;;5003635;28;20217;-77
2021/08/04 00:14:02;;;;;;;4.32;4.03;;;23.40;67.90;;;;;;5008393;28;20266;-77
2021/08/04 00:16:59;;;;;;;4.57;4.25;;;23.40;67.90;;;;;;5004616;28;20628;-77
2021/08/04 00:19:24;;;;;;;4.18;3.92;;;23.40;69.20;;;;;;5006637;28;20837;-77
2021/08/04 00:21:50;;;;;;;4.30;3.97;;;23.40;68.80;;;;;;5008779;28;20318;-77
2021/08/04 00:24:16;;;;;;;5.15;4.43;;;23.30;68.60;;;;;;5010182;28;20208;-76
2021/08/04 00:26:42;;;;;;;3.25;3.05;;;23.30;67.60;;;;;;5005787;28;20635;-77
2021/08/04 00:29:07;;;;;;;4.15;3.75;;;23.20;67.30;;;;;;5008227;28;20221;-77
2021/08/04 00:31:33;;;;;;;3.65;3.45;;;23.20;67.70;;;;;;5004041;28;20190;-76
2021/08/04 00:34:27;;;;;;;4.38;3.92;;;23.10;68.20;;;;;;5004459;28;20276;-77
2021/08/04 00:36:52;;;;;;;4.63;3.88;;;23.10;69.60;;;;;;5009872;28;20185;-77
2021/08/04 00:39:18;;;;;;;3.45;3.10;;;23.00;69.20;;;;;;5001672;28;20189;-76
2021/08/04 00:41:44;;;;;;;3.65;3.28;;;23.00;69.50;;;;;;5006527;28;20267;-77
2021/08/04 00:44:10;;;;;;;4.28;3.42;;;23.00;69.70;;;;;;5008244;28;20199;-77
2021/08/04 00:46:45;;;;;;;3.92;3.67;;;23.00;69.60;;;;;;5004263;28;21173;-77
2021/08/04 00:49:12;;;;;;;4.60;3.78;;;23.00;69.90;;;;;;5005428;28;20594;-77
2021/08/04 00:51:38;;;;;;;6.45;3.80;;;22.90;70.00;;;;;;5006999;28;20631;-77
2021/08/04 00:54:06;;;;;;;3.55;3.35;;;22.90;70.20;;;;;;4998085;28;20574;-77
2021/08/04 00:56:32;;;;;;;3.92;3.72;;;22.80;70.10;;;;;;5002935;28;20196;-76
2021/08/04 00:59:29;;;;;;;4.97;3.90;;;22.80;70.30;;;;;;5007574;28;20563;-77
2021/08/04 01:02:22;;;;;;;3.35;3.13;;;22.80;71.50;;;;;;5005815;28;20193;-77
2021/08/04 01:08:10;;;;;;;3.65;3.35;;;22.70;70.30;;;;;;5003606;28;20227;-76
2021/08/04 01:10:55;;;;;;;3.90;3.53;;;22.70;71.80;;;;;;5000548;28;20280;-76
2021/08/04 01:13:58;;;;;;;4.63;3.63;;;22.70;71.40;;;;;;4997688;28;20186;-76
2021/08/04 01:16:31;;;;;;;4.30;3.75;;;22.60;70.20;;;;;;4989722;28;20204;-76
2021/08/04 01:19:23;;;;;;;4.20;4.00;;;22.60;70.90;;;;;;4999959;28;20184;-76
2021/08/04 01:22:15;;;;;;;2.90;2.80;;;22.60;70.90;;;;;;5000418;28;20856;-76
2021/08/04 01:25:03;;;;;;;4.13;3.72;;;22.50;72.10;;;;;;5003171;28;20224;-75
2021/08/04 01:27:30;;;;;;;3.97;3.78;;;22.50;72.00;;;;;;5006057;28;20229;-76
2021/08/04 01:29:58;;;;;;;3.05;2.85;;;22.50;71.10;;;;;;5006700;28;20192;-76
2021/08/04 01:32:26;;;;;;;4.10;3.58;;;22.50;72.30;;;;;;5004534;28;20247;-76
2021/08/04 01:34:53;;;;;;;3.88;3.60;;;22.40;72.00;;;;;;5000799;28;20189;-76
2021/08/04 01:37:22;;;;;;;4.32;3.33;;;22.40;71.70;;;;;;5016889;28;20197;-76
2021/08/04 01:39:49;;;;;;;4.47;3.63;;;22.40;71.70;;;;;;5000014;28;20188;-76
2021/08/04 01:42:32;;;;;;;3.88;3.63;;;22.30;71.70;;;;;;5003136;28;20262;-76
2021/08/04 01:45:00;;;;;;;3.50;3.30;;;22.30;72.60;;;;;;5004230;28;20585;-76
2021/08/04 01:47:28;;;;;;;3.92;3.72;;;22.30;71.80;;;;;;5004450;28;20257;-76
2021/08/04 01:49:54;;;;;;;3.78;3.47;;;22.30;72.10;;;;;;5008767;28;21098;-76
2021/08/04 01:52:22;;;;;;;3.90;3.70;;;22.30;72.10;;;;;;5005796;28;20690;-76
2021/08/04 01:54:48;;;;;;;4.10;3.67;;;22.20;71.90;;;;;;5004003;28;20182;-77
2021/08/04 01:57:14;;;;;;;4.28;3.97;;;22.20;72.40;;;;;;5000527;28;20198;-76
2021/08/04 01:59:40;;;;;;;3.85;3.65;;;22.20;72.90;;;;;;5007037;28;20228;-77
2021/08/04 02:02:27;;;;;;;3.30;3.15;;;22.20;72.70;;;;;;5000068;28;20185;-77
2021/08/04 02:04:53;;;;;;;4.25;3.95;;;22.10;73.80;;;;;;5026563;28;20722;-76
2021/08/04 02:07:39;;;;;;;6.63;3.80;;;22.10;72.70;;;;;;5008577;28;20180;-76
2021/08/04 02:10:08;;;;;;;3.88;3.67;;;22.10;73.80;;;;;;5005858;28;20255;-76
2021/08/04 02:12:43;;;;;;;5.63;3.95;;;22.10;72.60;;;;;;5006087;28;20271;-77
2021/08/04 02:15:32;;;;;;;5.25;3.42;;;22.00;72.40;;;;;;5003647;28;20266;-76
2021/08/04 02:18:03;;;;;;;2.97;2.88;;;21.90;74.10;;;;;;5004333;28;20193;-76
2021/08/04 02:20:35;;;;;;;4.78;3.85;;;21.90;72.60;;;;;;5004713;28;20185;-76
2021/08/04 02:23:10;;;;;;;4.25;3.85;;;21.90;73.10;;;;;;5005384;28;20867;-76
2021/08/04 02:25:48;;;;;;;4.88;4.00;;;21.80;72.80;;;;;;5008556;28;20723;-76
2021/08/04 02:28:21;;;;;;;3.67;3.47;;;21.70;73.20;;;;;;5007126;28;20299;-77
2021/08/04 02:30:52;;;;;;;4.13;3.72;;;21.70;73.00;;;;;;5006213;28;20189;-77
2021/08/04 02:33:19;;;;;;;3.95;3.47;;;21.70;73.00;;;;;;4997779;28;20196;-76
2021/08/04 02:35:46;;;;;;;5.28;4.00;;;21.70;73.20;;;;;;5006529;28;20254;-77
2021/08/04 02:38:13;;;;;;;3.65;3.45;;;21.60;73.10;;;;;;4998220;28;20185;-77
2021/08/04 02:40:57;;;;;;;4.10;3.72;;;21.60;73.10;;;;;;5004605;28;20568;-76
2021/08/04 02:43:23;;;;;;;3.85;3.55;;;21.60;74.40;;;;;;5003579;28;20258;-75
2021/08/04 02:45:51;;;;;;;4.07;3.78;;;21.60;73.90;;;;;;5000387;28;20197;-75
2021/08/04 02:48:19;;;;;;;3.90;3.67;;;21.60;73.80;;;;;;5003350;28;20223;-76
2021/08/04 02:53:41;;;;;;;4.05;3.72;;;21.40;74.30;;;;;;4998676;28;20231;-76
2021/08/04 02:56:07;;;;;;;4.47;4.10;;;21.40;74.40;;;;;;5006107;28;20185;-75
2021/08/04 02:58:37;;;;;;;4.55;3.97;;;21.40;74.00;;;;;;5005455;28;20654;-76
2021/08/04 03:01:07;;;;;;;4.38;3.97;;;21.40;74.10;;;;;;5008109;28;20264;-76
2021/08/04 03:03:34;;;;;;;4.95;4.10;;;21.40;74.30;;;;;;4997408;28;20275;-76
2021/08/04 03:05:59;;;;;;;6.38;4.10;;;21.30;74.20;;;;;;5003081;28;20284;-76
2021/08/04 03:08:25;;;;;;;6.03;4.10;;;21.30;74.00;;;;;;5001439;28;20303;-76
2021/08/04 03:10:52;;;;;;;4.90;4.50;;;21.20;74.30;;;;;;4998527;28;20235;-76
2021/08/04 03:13:18;;;;;;;5.25;4.15;;;21.20;74.00;;;;;;4998592;28;20185;-76
2021/08/04 03:15:43;;;;;;;5.95;4.80;;;21.10;74.20;;;;;;5002771;28;20279;-76
2021/08/04 03:18:09;;;;;;;7.32;5.85;;;21.10;74.30;;;;;;4998179;28;20263;-75
2021/08/04 03:20:57;;;;;;;10.43;5.50;;;21.10;74.00;;;;;;5007668;28;20216;-77
2021/08/04 03:23:23;;;;;;;8.27;5.03;;;21.10;74.80;;;;;;4995062;28;20268;-74
2021/08/04 03:25:49;;;;;;;5.13;4.68;;;21.10;73.90;;;;;;5004216;28;20296;-75
2021/08/04 03:28:15;;;;;;;10.25;4.28;;;21.00;74.10;;;;;;4997821;28;20292;-74
2021/08/04 03:30:41;;;;;;;7.95;4.75;;;21.00;74.10;;;;;;5005385;28;20185;-75
2021/08/04 03:33:07;;;;;;;4.63;4.22;;;21.00;74.30;;;;;;5002589;28;20196;-75
2021/08/04 03:35:58;;;;;;;8.70;5.22;;;21.10;74.10;;;;;;5004208;28;20575;-75
2021/08/04 03:38:23;;;;;;;4.85;4.47;;;21.10;75.30;;;;;;4994689;28;20186;-75
2021/08/04 03:40:49;;;;;;;5.50;4.93;;;21.10;74.20;;;;;;5007500;28;20235;-75
2021/08/04 03:43:15;;;;;;;4.32;4.03;;;21.10;74.70;;;;;;5003513;28;20243;-77
2021/08/04 03:45:40;;;;;;;4.93;4.43;;;21.10;74.70;;;;;;5007582;28;20192;-75
2021/08/04 03:48:06;;;;;;;4.00;3.75;;;21.20;74.30;;;;;;5005692;28;20232;-77
2021/08/04 03:50:32;;;;;;;3.97;3.60;;;21.20;74.60;;;;;;5004284;28;20185;-75
2021/08/04 03:53:03;;;;;;;4.95;4.45;;;21.30;74.40;;;;;;4998038;28;20196;-75
2021/08/04 03:55:30;;;;;;;4.35;3.90;;;21.30;74.20;;;;;;5005005;28;20219;-75
2021/08/04 03:58:28;;;;;;;12.27;4.28;;;21.30;74.30;;;;;;5005023;28;20211;-75
2021/08/04 04:00:54;;;;;;;4.40;4.03;;;21.30;74.50;;;;;;4998493;28;20189;-74
2021/08/04 04:03:20;;;;;;;5.55;3.92;;;21.40;74.50;;;;;;4998373;28;20278;-77
2021/08/04 04:05:45;;;;;;;4.78;4.32;;;21.40;74.80;;;;;;5002914;28;20760;-77
2021/08/04 04:08:11;;;;;;;4.60;4.20;;;21.40;74.90;;;;;;4996037;28;20218;-77
2021/08/04 04:10:37;;;;;;;5.50;4.20;;;21.40;75.10;;;;;;5006253;28;20645;-76
2021/08/04 04:13:03;;;;;;;8.40;3.95;;;21.50;75.30;;;;;;5001587;28;20210;-77
2021/08/04 04:15:29;;;;;;;5.28;3.92;;;21.40;75.20;;;;;;5006192;28;20208;-76
2021/08/04 04:17:55;;;;;;;4.10;3.85;;;21.50;75.20;;;;;;5007169;28;20219;-76
2021/08/04 04:20:21;;;;;;;4.15;3.85;;;21.50;75.40;;;;;;5006677;28;20185;-77
2021/08/04 04:22:46;;;;;;;3.72;3.53;;;21.50;75.60;;;;;;4993483;28;20197;-77
2021/08/04 04:25:14;;;;;;;6.15;3.92;;;21.50;75.90;;;;;;5009415;28;20193;-76
2021/08/04 04:27:42;;;;;;;8.98;4.22;;;21.50;75.90;;;;;;5004871;28;20603;-75
2021/08/04 04:30:09;;;;;;;3.78;3.42;;;21.50;76.10;;;;;;5009939;28;20253;-75
2021/08/04 04:32:59;;;;;;;4.00;3.75;;;21.60;76.30;;;;;;5006263;28;20248;-75
2021/08/04 04:35:25;;;;;;;5.30;4.03;;;21.60;77.10;;;;;;5009749;28;20188;-75
2021/08/04 04:37:51;;;;;;;5.85;3.75;;;21.60;76.20;;;;;;5007418;28;20252;-75
2021/08/04 04:40:17;;;;;;;5.03;4.65;;;21.60;76.30;;;;;;5007966;28;21553;-75
2021/08/04 04:42:43;;;;;;;4.53;4.13;;;21.60;76.50;;;;;;5000253;28;20682;-75
2021/08/04 04:45:10;;;;;;;4.85;3.80;;;21.70;76.20;;;;;;5005027;28;21459;-77
2021/08/04 04:47:35;;;;;;;4.35;3.47;;;21.70;76.20;;;;;;4994872;28;20209;-78
2021/08/04 04:50:01;;;;;;;3.38;3.10;;;21.70;76.10;;;;;;5000020;28;20204;-78
2021/08/04 04:52:27;;;;;;;3.83;3.53;;;21.70;76.30;;;;;;5001593;28;20185;-78
2021/08/04 04:54:53;;;;;;;4.15;3.67;;;21.70;76.30;;;;;;5003440;28;20200;-78
2021/08/04 04:57:27;;;;;;;4.43;3.95;;;21.70;76.20;;;;;;4999801;28;20296;-78
2021/08/04 04:59:53;;;;;;;3.85;3.55;;;21.80;75.70;;;;;;5009188;28;20199;-78
2021/08/04 05:02:19;;;;;;;6.05;3.25;;;21.80;75.50;;;;;;4998282;28;20189;-78
2021/08/04 05:04:45;;;;;;;5.70;3.45;;;21.80;75.50;;;;;;5006489;28;20607;-79
2021/08/04 05:07:11;;;;;;;3.80;3.55;;;21.80;75.00;;;;;;5001535;28;20299;-79
2021/08/04 05:09:37;;;;;;;3.53;3.33;;;21.90;75.10;;;;;;5006937;28;20698;-79
2021/08/04 05:12:03;;;;;;;3.00;2.88;;;21.90;75.40;;;;;;5003643;28;20185;-79
2021/08/04 05:14:29;;;;;;;3.20;3.10;;;21.90;75.40;;;;;;5005060;28;20620;-75
2021/08/04 05:16:55;;;;;;;4.00;3.55;;;21.90;75.20;;;;;;5004865;28;20191;-75
2021/08/04 05:19:20;;;;;;;3.55;3.35;;;21.90;75.00;;;;;;5005333;28;20184;-77
2021/08/04 05:21:46;;;;;;;5.05;3.78;;;22.00;74.80;;;;;;5006246;28;20693;-76
2021/08/04 05:24:12;;;;;;;4.30;3.58;;;22.00;74.60;;;;;;4999482;28;20191;-76
2021/08/04 05:26:39;;;;;;;7.22;3.30;;;22.00;74.40;;;;;;5003398;28;20181;-75
2021/08/04 05:29:05;;;;;;;4.38;3.92;;;22.10;74.30;;;;;;5000538;28;20220;-80
2021/08/04 05:31:31;;;;;;;4.13;3.80;;;22.10;74.30;;;;;;5008181;28;20284;-80
2021/08/04 05:34:28;;;;;;;6.03;3.97;;;22.20;74.00;;;;;;5007040;28;20190;-78
2021/08/04 05:36:54;;;;;;;4.43;4.03;;;22.20;74.50;;;;;;5004738;28;20193;-75
2021/08/04 05:39:22;;;;;;;4.93;4.10;;;22.30;73.60;;;;;;5001512;28;20195;-77
2021/08/04 05:41:47;;;;;;;6.22;4.40;;;22.30;73.70;;;;;;5006800;28;20199;-77
2021/08/04 05:44:13;;;;;;;7.88;4.63;;;22.30;73.70;;;;;;4998535;28;20297;-77
2021/08/04 05:46:39;;;;;;;4.72;4.28;;;22.40;73.70;;;;;;5002595;28;20633;-77
2021/08/04 05:49:29;;;;;;;4.25;3.88;;;22.40;73.60;;;;;;4999475;28;20992;-77
2021/08/04 05:51:55;;;;;;;4.18;3.88;;;22.50;74.40;;;;;;4999671;28;20189;-77
2021/08/04 05:54:20;;;;;;;4.63;4.20;;;22.50;73.70;;;;;;5004083;28;20189;-76
2021/08/04 05:56:47;;;;;;;4.68;4.28;;;22.50;73.80;;;;;;5005639;28;20192;-77
2021/08/04 05:59:13;;;;;;;4.68;4.10;;;22.60;73.50;;;;;;5007272;28;20231;-75
2021/08/04 06:01:39;;;;;;;4.72;4.13;;;22.60;73.50;;;;;;5007602;28;20181;-75
2021/08/04 06:04:05;;;;;;;4.72;4.25;;;22.60;73.60;;;;;;5006664;28;20673;-74
2021/08/04 06:06:31;;;;;;;4.50;4.28;;;22.70;73.70;;;;;;5000022;28;20619;-74
2021/08/04 06:08:56;;;;;;;3.40;3.15;;;22.70;73.70;;;;;;5004679;28;20224;-74
2021/08/04 06:11:23;;;;;;;5.00;4.60;;;22.80;73.50;;;;;;5004805;28;20189;-76
2021/08/04 06:13:49;;;;;;;5.72;4.18;;;22.80;73.30;;;;;;5006766;28;20185;-76
2021/08/04 06:16:14;;;;;;;4.22;3.92;;;22.90;73.30;;;;;;5005327;28;20243;-77
2021/08/04 06:18:58;;;;;;;4.45;3.85;;;23.00;73.40;;;;;;5000799;28;20264;-77
2021/08/04 06:21:26;;;;;;;4.38;3.97;;;23.00;73.60;;;;;;5005526;28;20510;-77
2021/08/04 06:23:55;;;;;;;4.20;3.90;;;23.10;72.60;;;;;;5001109;28;20813;-77
2021/08/04 06:26:20;;;;;;;7.13;3.90;;;23.10;71.90;;;;;;4996671;28;20264;-77
2021/08/04 06:28:50;;;;;;;6.28;4.05;;;23.20;72.30;;;;;;5004830;28;20301;-77
2021/08/04 06:31:16;;;;;;;3.92;3.72;;;23.30;72.30;;;;;;5003936;28;20204;-77
2021/08/04 06:33:42;;;;;;;4.25;4.00;;;23.40;71.90;;;;;;5003747;28;20185;-76
2021/08/04 06:36:07;;;;;;;5.40;4.20;;;23.50;71.90;;;;;;5000564;28;20860;-76
2021/08/04 06:38:33;;;;;;;4.22;3.97;;;23.60;71.80;;;;;;5003265;28;20594;-77
2021/08/04 06:40:59;;;;;;;6.90;4.55;;;23.70;71.40;;;;;;4999168;28;20196;-77
2021/08/04 06:43:25;;;;;;;4.85;4.28;;;23.70;71.30;;;;;;5004662;28;20188;-77
2021/08/04 06:45:51;;;;;;;3.47;3.28;;;23.80;71.00;;;;;;4998403;28;20196;-76
2021/08/04 06:48:17;;;;;;;3.42;3.20;;;23.90;70.70;;;;;;5003593;28;20902;-77
2021/08/04 06:50:44;;;;;;;10.00;3.67;;;24.00;70.50;;;;;;4991293;28;20212;-76
2021/08/04 06:53:10;;;;;;;5.20;3.78;;;24.10;70.40;;;;;;5003601;28;20177;-75
2021/08/04 06:55:36;;;;;;;5.65;3.67;;;24.20;70.40;;;;;;5004779;28;20177;-76
2021/08/04 06:58:02;;;;;;;3.70;3.45;;;24.30;69.90;;;;;;5005558;28;20634;-76
2021/08/04 07:00:28;;;;;;;7.72;3.83;;;24.40;69.50;;;;;;4994989;28;20185;-76
2021/08/04 07:02:53;;;;;;;6.50;4.05;;;24.50;69.70;;;;;;4997061;28;20203;-76
2021/08/04 07:05:19;;;;;;;3.90;3.70;;;24.60;69.50;;;;;;5007310;28;20581;-75
2021/08/04 07:07:46;;;;;;;6.32;3.88;;;24.60;69.10;;;;;;5007235;28;20209;-75
2021/08/04 07:10:13;;;;;;;3.70;3.50;;;24.70;68.90;;;;;;5004234;28;20218;-75
2021/08/04 07:12:39;;;;;;;12.27;3.83;;;24.80;68.80;;;;;;5006501;28;20196;-76
2021/08/04 07:15:05;;;;;;;9.85;4.35;;;24.90;68.80;;;;;;5006823;28;20188;-75
2021/08/04 07:17:45;;;;;;;7.78;3.70;;;25.00;68.20;;;;;;5003769;28;20253;-74
2021/08/04 07:20:13;;;;;;;6.82;3.90;;;25.10;67.80;;;;;;5004809;28;20187;-75
2021/08/04 07:22:39;;;;;;;9.45;4.68;;;25.10;67.20;;;;;;5007244;28;20215;-75
2021/08/04 07:25:04;;;;;;;5.32;3.78;;;25.20;67.10;;;;;;5007281;28;20258;-76
2021/08/04 07:27:30;;;;;;;5.97;3.70;;;25.30;67.10;;;;;;5006979;28;20180;-75
2021/08/04 07:29:56;;;;;;;3.47;3.25;;;25.40;67.30;;;;;;5007069;28;20204;-75
2021/08/04 07:32:22;;;;;;;4.70;4.30;;;25.40;67.00;;;;;;4997040;28;20185;-75
2021/08/04 07:34:47;;;;;;;4.65;4.03;;;25.50;66.10;;;;;;5004002;28;20230;-75
2021/08/04 07:37:14;;;;;;;4.28;3.88;;;25.60;66.00;;;;;;5003178;28;20200;-76
2021/08/04 07:39:40;;;;;;;4.93;3.88;;;25.70;66.00;;;;;;5005303;28;20181;-75
2021/08/04 07:42:06;;;;;;;3.88;3.55;;;25.80;66.10;;;;;;5006523;28;20192;-75
2021/08/04 07:44:31;;;;;;;5.82;3.60;;;25.90;66.10;;;;;;5001786;28;20192;-76
2021/08/04 07:46:57;;;;;;;5.63;3.47;;;25.90;66.70;;;;;;4998349;28;20643;-76
2021/08/04 07:49:23;;;;;;;9.07;4.35;;;26.00;65.40;;;;;;5005476;28;20221;-76
2021/08/04 07:51:50;;;;;;;5.15;3.30;;;26.10;66.00;;;;;;5006218;28;20181;-76
2021/08/04 07:54:16;;;;;;;3.67;3.45;;;26.10;65.60;;;;;;5000729;28;20188;-76
2021/08/04 07:56:41;;;;;;;5.45;3.88;;;26.20;65.10;;;;;;5006670;28;20745;-76
2021/08/04 07:59:07;;;;;;;4.30;3.90;;;26.30;65.00;;;;;;5010322;28;20184;-76
2021/08/04 08:01:32;;;;;;;4.30;3.65;;;26.40;65.00;;;;;;5010145;28;20180;-75
2021/08/04 08:03:58;;;;;;;8.68;4.00;;;26.50;65.40;;;;;;5007571;28;20181;-76
2021/08/04 08:06:24;;;;;;;3.97;3.60;;;26.50;64.10;;;;;;5007419;28;20196;-76
2021/08/04 08:08:50;;;;;;;4.50;3.97;;;26.60;64.40;;;;;;5010034;28;20240;-76
2021/08/04 08:11:15;;;;;;;9.43;4.05;;;26.70;64.10;;;;;;5000451;28;20186;-76
2021/08/04 08:13:41;;;;;;;4.82;3.90;;;26.80;63.90;;;;;;5010145;28;20180;-76
2021/08/04 08:16:06;;;;;;;5.35;3.72;;;26.80;63.70;;;;;;5010379;28;20181;-76
2021/08/04 08:18:32;;;;;;;7.57;3.53;;;26.90;63.90;;;;;;5010080;28;20269;-77
2021/08/04 08:20:58;;;;;;;5.95;3.28;;;27.00;63.80;;;;;;5010503;28;20666;-77
2021/08/04 08:23:24;;;;;;;5.93;4.20;;;27.10;63.80;;;;;;5010503;28;20177;-76
2021/08/04 08:25:49;;;;;;;3.75;3.17;;;27.20;63.30;;;;;;5006077;28;20846;-76
2021/08/04 08:28:16;;;;;;;3.88;3.33;;;27.30;63.00;;;;;;5007371;28;20756;-76
2021/08/04 08:30:42;;;;;;;11.73;3.35;;;27.40;62.60;;;;;;5009972;28;20642;-77
2021/08/04 08:33:08;;;;;;;5.38;3.67;;;27.50;62.60;;;;;;5005628;28;20190;-76
2021/08/04 08:35:35;;;;;;;7.50;3.30;;;27.60;62.70;;;;;;5001464;28;20268;-76
2021/08/04 08:38:01;;;;;;;6.93;3.38;;;27.70;62.20;;;;;;5008717;28;20189;-76
2021/08/04 08:40:27;;;;;;;3.92;3.63;;;27.80;62.70;;;;;;5009692;28;20679;-76
2021/08/04 08:42:53;;;;;;;4.40;3.55;;;27.90;62.50;;;;;;4997213;28;20173;-76
2021/08/04 08:45:20;;;;;;;6.15;3.35;;;28.00;62.00;;;;;;5004662;28;20182;-77
2021/08/04 08:47:46;;;;;;;3.85;3.65;;;28.20;61.70;;;;;;5008500;28;20208;-76
2021/08/04 08:50:14;;;;;;;6.32;3.28;;;28.30;61.70;;;;;;4998910;28;20178;-77
2021/08/04 08:52:40;;;;;;;5.13;2.88;;;28.40;61.20;;;;;;4994579;28;20177;-76
2021/08/04 08:55:07;;;;;;;5.60;2.88;;;28.50;60.60;;;;;;5008642;28;20188;-77
2021/08/04 08:57:33;;;;;;;6.78;2.63;;;28.60;59.70;;;;;;5008963;28;20493;-76
2021/08/04 08:59:59;;;;;;;5.82;3.40;;;28.70;60.20;;;;;;5009135;28;20180;-76
2021/08/04 09:02:26;;;;;;;4.00;2.55;;;28.90;60.70;;;;;;5005051;28;20623;-76
2021/08/04 09:05:07;;;;;;;5.07;2.97;;;29.00;60.20;;;;;;5008942;28;20226;-76
2021/08/04 09:07:38;;;;;;;2.65;2.42;;;29.10;59.70;;;;;;5008797;28;20214;-76
2021/08/04 09:10:22;;;;;;;4.43;2.88;;;29.30;59.40;;;;;;5008305;28;20651;-76
2021/08/04 09:12:52;;;;;;;5.65;3.03;;;29.40;58.00;;;;;;5008588;28;20238;-76
2021/08/04 09:15:28;;;;;;;3.17;2.63;;;29.50;58.20;;;;;;5005884;28;20181;-77
2021/08/04 09:18:06;;;;;;;4.63;2.47;;;29.60;58.70;;;;;;4997990;28;20215;-76
2021/08/04 09:20:41;;;;;;;3.25;2.72;;;29.80;58.80;;;;;;5006522;28;20263;-76
2021/08/04 09:23:15;;;;;;;6.93;2.80;;;30.00;57.70;;;;;;5008604;28;20184;-76
2021/08/04 09:25:40;;;;;;;5.32;3.28;;;30.10;57.30;;;;;;5006351;28;20570;-77
2021/08/04 09:28:08;;;;;;;3.17;2.92;;;30.20;57.10;;;;;;5003653;28;20204;-76
2021/08/04 09:30:37;;;;;;;3.83;2.58;;;30.30;56.70;;;;;;5008752;28;20177;-77
2021/08/04 09:33:17;;;;;;;7.55;2.83;;;30.40;56.50;;;;;;5008361;28;20242;-76
2021/08/04 09:35:56;;;;;;;4.28;2.50;;;30.60;56.60;;;;;;5008834;28;20190;-76
2021/08/04 09:38:23;;;;;;;4.88;2.65;;;30.80;56.40;;;;;;5007099;28;20223;-75
2021/08/04 09:41:15;;;;;;;9.48;3.22;;;31.00;56.70;;;;;;5002246;28;20612;-77
2021/08/04 09:43:45;;;;;;;9.45;3.55;;;31.20;56.30;;;;;;5022992;28;20643;-76
2021/08/04 09:46:25;;;;;;;5.22;2.88;;;31.40;56.40;;;;;;5004747;28;20174;-76
2021/08/04 09:48:51;;;;;;;4.68;2.78;;;31.70;54.30;;;;;;5002877;28;20652;-76
2021/08/04 09:51:18;;;;;;;8.35;3.08;;;32.00;54.40;;;;;;4993219;28;20197;-76
2021/08/04 09:53:49;;;;;;;5.75;2.80;;;32.40;53.50;;;;;;5000763;28;20180;-76
2021/08/04 09:56:20;;;;;;;4.75;3.08;;;32.70;53.90;;;;;;5005717;28;20213;-76
2021/08/04 09:58:47;;;;;;;5.55;3.08;;;33.10;53.10;;;;;;4998059;28;20655;-76
2021/08/04 10:01:15;;;;;;;7.03;3.30;;;33.60;52.90;;;;;;4990873;28;21021;-76
2021/08/04 10:04:04;;;;;;;4.18;2.90;;;34.00;52.20;;;;;;4999137;28;20674;-76
2021/08/04 10:06:30;;;;;;;5.30;3.10;;;34.60;50.60;;;;;;4995620;28;20358;-76
2021/08/04 10:09:02;;;;;;;2.95;2.78;;;35.20;49.90;;;;;;4994948;28;20268;-77
2021/08/04 10:11:29;;;;;;;3.67;3.20;;;35.60;50.10;;;;;;5001109;28;20642;-76
2021/08/04 10:13:57;;;;;;;3.05;2.60;;;36.10;49.10;;;;;;5001506;28;20654;-76
2021/08/04 10:16:28;;;;;;;9.27;2.63;;;36.60;49.30;;;;;;4996071;28;20735;-76
2021/08/04 10:18:54;;;;;;;5.32;2.53;;;37.20;48.00;;;;;;4994795;28;20777;-76
2021/08/04 10:21:20;;;;;;;9.25;3.35;;;37.70;47.80;;;;;;4998035;28;20170;-76
2021/08/04 10:23:50;;;;;;;4.15;3.10;;;37.90;47.00;;;;;;5003284;28;20187;-76
2021/08/04 10:26:16;;;;;;;3.08;2.85;;;38.20;46.30;;;;;;4999448;28;20251;-76
2021/08/04 10:28:43;;;;;;;3.20;2.70;;;38.60;47.80;;;;;;4994485;28;20621;-76
2021/08/04 10:31:10;;;;;;;5.03;3.10;;;39.10;46.50;;;;;;4994315;28;20218;-76
2021/08/04 10:33:38;;;;;;;6.03;3.05;;;39.70;45.80;;;;;;4991812;28;20259;-75
2021/08/04 10:36:07;;;;;;;3.67;2.78;;;40.10;44.90;;;;;;4991020;28;20279;-75
2021/08/04 10:38:36;;;;;;;6.00;3.10;;;40.60;43.20;;;;;;4990101;28;20326;-73
2021/08/04 10:41:14;;;;;;;6.90;2.95;;;40.90;44.90;;;;;;4997176;28;20196;-73
2021/08/04 10:43:49;;;;;;;6.13;3.10;;;41.20;44.90;;;;;;5002577;28;20576;-75
2021/08/04 10:46:30;;;;;;;3.63;2.78;;;41.50;43.30;;;;;;4999611;28;20187;-74
2021/08/04 10:49:02;;;;;;;4.55;2.97;;;42.00;42.80;;;;;;5002428;28;20704;-75
2021/08/04 10:51:28;;;;;;;2.95;2.65;;;42.30;42.70;;;;;;5000068;28;20275;-73
2021/08/04 10:54:13;;;;;;;2.72;2.55;;;42.40;42.10;;;;;;4997904;28;20263;-72
2021/08/04 10:56:41;;;;;;;4.32;2.95;;;42.30;42.10;;;;;;4997200;28;20219;-73
2021/08/04 10:59:13;;;;;;;7.45;2.88;;;42.40;43.90;;;;;;4999010;28;20268;-73
2021/08/04 11:01:42;;;;;;;3.08;2.70;;;42.30;42.40;;;;;;5001945;28;20210;-73
2021/08/04 11:04:29;;;;;;;6.40;2.35;;;41.90;42.70;;;;;;5001193;28;20188;-73
2021/08/04 11:07:13;;;;;;;2.83;2.50;;;41.60;41.40;;;;;;5002411;28;20177;-72
2021/08/04 11:09:54;;;;;;;5.20;2.75;;;41.50;42.60;;;;;;4999885;28;20702;-73
2021/08/04 11:12:41;;;;;;;3.53;2.83;;;41.60;42.80;;;;;;4996432;28;20195;-73
2021/08/04 11:15:23;;;;;;;5.55;2.60;;;41.90;42.10;;;;;;4998463;28;20216;-73
2021/08/04 11:17:56;;;;;;;3.17;2.63;;;42.40;42.50;;;;;;4993625;28;20706;-73
2021/08/04 11:20:22;;;;;;;4.75;2.45;;;42.90;42.40;;;;;;4999322;28;20203;-71
2021/08/04 11:22:53;;;;;;;6.38;3.38;;;43.30;41.70;;;;;;5002408;28;20258;-73
2021/08/04 11:25:33;;;;;;;4.88;2.63;;;43.60;42.40;;;;;;5001565;28;20195;-73
2021/08/04 11:27:59;;;;;;;6.18;2.70;;;43.40;41.30;;;;;;5001490;28;20354;-73
2021/08/04 11:30:44;;;;;;;4.65;2.30;;;43.00;43.20;;;;;;5003759;28;20259;-72
2021/08/04 11:33:19;;;;;;;9.27;2.63;;;42.90;40.80;;;;;;5008866;28;20588;-73
2021/08/04 11:35:46;;;;;;;7.20;2.33;;;43.20;41.80;;;;;;5009156;28;20188;-73
2021/08/04 11:38:12;;;;;;;4.82;2.13;;;43.60;42.00;;;;;;5006708;28;20184;-72
2021/08/04 11:40:37;;;;;;;6.18;2.30;;;44.00;41.50;;;;;;5008424;28;20243;-73
2021/08/04 11:43:03;;;;;;;7.03;2.13;;;44.40;40.60;;;;;;5001699;28;20616;-73
2021/08/04 11:45:29;;;;;;;2.35;1.95;;;45.00;40.40;;;;;;5003112;28;20646;-72
2021/08/04 11:47:55;;;;;;;4.50;2.03;;;45.50;40.20;;;;;;5009644;28;21015;-73
2021/08/04 11:50:21;;;;;;;2.85;1.88;;;46.00;40.30;;;;;;5002634;28;20256;-73
2021/08/04 11:52:48;;;;;;;3.13;2.30;;;46.40;40.70;;;;;;5005411;28;20568;-72
2021/08/04 11:55:15;;;;;;;2.83;2.63;;;46.80;39.70;;;;;;5000525;28;20200;-72
2021/08/04 11:57:49;;;;;;;4.70;2.30;;;47.20;39.10;;;;;;5009978;28;20195;-74
2021/08/04 12:00:17;;;;;;;6.93;2.72;;;47.60;38.60;;;;;;5008714;28;20616;-72
2021/08/04 12:02:44;;;;;;;2.78;2.58;;;47.50;38.90;;;;;;5009020;28;20185;-72
2021/08/04 12:05:12;;;;;;;2.85;2.60;;;46.90;38.40;;;;;;5007304;28;20193;-73
2021/08/04 12:07:38;;;;;;;6.97;2.35;;;46.60;39.20;;;;;;5004090;28;20766;-73
2021/08/04 12:10:10;;;;;;;5.38;2.58;;;46.80;39.90;;;;;;4996071;28;20785;-73
2021/08/04 12:12:42;;;;;;;2.78;2.55;;;46.90;39.70;;;;;;5010195;28;20254;-73
2021/08/04 12:15:15;;;;;;;7.38;2.92;;;46.60;39.30;;;;;;5005231;28;20188;-72
2021/08/04 12:17:41;;;;;;;10.82;2.45;;;46.70;39.30;;;;;;5000935;28;20181;-74
2021/08/04 12:20:23;;;;;;;3.33;2.40;;;46.90;40.00;;;;;;5003755;28;20175;-73
2021/08/04 12:22:59;;;;;;;4.90;2.17;;;47.00;39.00;;;;;;5014524;28;20184;-73
2021/08/04 12:25:25;;;;;;;2.13;1.85;;;47.20;38.10;;;;;;4995368;28;20187;-74
2021/08/04 12:27:54;;;;;;;3.15;2.10;;;47.40;39.50;;;;;;5007901;28;20187;-74
2021/08/04 12:30:33;;;;;;;2.50;1.83;;;47.10;39.10;;;;;;5008334;28;20274;-71
2021/08/04 12:33:17;;;;;;;5.97;1.98;;;46.80;38.70;;;;;;5004783;28;20180;-73
2021/08/04 12:36:09;;;;;;;2.72;1.67;;;46.60;38.30;;;;;;5002681;28;20263;-73
2021/08/04 12:38:39;;;;;;;2.80;2.17;;;46.60;38.30;;;;;;5006909;28;20267;-74
2021/08/04 12:41:08;;;;;;;5.90;2.33;;;47.10;39.10;;;;;;5000874;28;20181;-72
2021/08/04 12:43:42;;;;;;;4.00;2.00;;;47.30;39.00;;;;;;5001557;28;20188;-74
2021/08/04 12:46:09;;;;;;;3.75;1.67;;;47.30;37.70;;;;;;4994586;28;20215;-71
2021/08/04 12:48:49;;;;;;;2.50;1.58;;;47.00;37.70;;;;;;5014714;28;20220;-71
2021/08/04 12:51:22;;;;;;;2.17;1.50;;;47.00;37.00;;;;;;5004279;28;20191;-73
2021/08/04 12:54:05;;;;;;;4.28;1.83;;;47.20;38.70;;;;;;5008471;28;20188;-72
2021/08/04 12:56:36;;;;;;;1.85;1.55;;;47.50;37.20;;;;;;5006449;28;20172;-74
2021/08/04 12:59:12;;;;;;;5.22;1.30;;;47.80;37.50;;;;;;5006716;28;20180;-72
2021/08/04 13:01:42;;;;;;;2.72;1.40;;;48.20;36.80;;;;;;4999150;28;20738;-72
2021/08/04 13:04:23;;;;;;;5.05;1.58;;;48.50;37.80;;;;;;5010545;28;20189;-74
2021/08/04 13:07:02;;;;;;;3.30;1.50;;;48.60;36.30;;;;;;5003441;28;20241;-72